Time;durP1;ratioP1;P1;durP2;ratioP2;P2;SDS_P1;SDS_P2;PMS_P1;PMS_P2;Temp;Humidity;BMP_temperature;BMP_pressure;BME280_temperature;BME280_humidity;BME280_pressure;Samples;Min_cycle;Max_cycle;Signal;HPM_P1;HPM_P2
2023/06/13 00:03:40;;;;;;;;;;;;;;;13.46;100.00;95379.88;10510468;28;1883;-71
2023/06/13 00:08:43;;;;;;;;;;;;;;;13.43;100.00;95379.72;10495348;28;1902;-72
2023/06/13 00:13:46;;;;;;;;;;;;;;;13.38;100.00;95377.91;10499710;28;1931;-72
2023/06/13 00:18:48;;;;;;;;;;;;;;;13.36;100.00;95373.88;10500264;28;1943;-71
2023/06/13 00:23:50;;;;;;;;;;;;;;;13.25;100.00;95373.31;10495694;28;1852;-71
2023/06/13 00:28:53;;;;;;;;;;;;;;;13.16;100.00;95364.25;10505409;28;2091;-71
2023/06/13 00:33:55;;;;;;;;;;;;;;;13.10;100.00;95365.47;10506233;28;1892;-72
2023/06/13 00:38:58;;;;;;;;;;;;;;;12.99;100.00;95360.28;10498767;28;2337;-71
2023/06/13 00:44:00;;;;;;;;;;;;;;;12.86;100.00;95350.28;10497036;28;2034;-71
2023/06/13 00:49:03;;;;;;;;;;;;;;;12.80;100.00;95343.38;10502565;28;2032;-73
2023/06/13 00:54:06;;;;;;;;;;;;;;;12.75;100.00;95337.25;10518063;28;2101;-72
2023/06/13 00:59:09;;;;;;;;;;;;;;;12.62;100.00;95326.16;10508253;28;2033;-72
2023/06/13 01:04:13;;;;;;;;;;;;;;;12.54;100.00;95326.06;10502047;28;1984;-72
2023/06/13 01:09:17;;;;;;;;;;;;;;;12.47;100.00;95326.44;10502729;28;2034;-72
2023/06/13 01:14:20;;;;;;;;;;;;;;;12.35;100.00;95308.03;10512011;28;1962;-72
2023/06/13 01:19:23;;;;;;;;;;;;;;;12.24;100.00;95312.00;10491588;28;1980;-71
2023/06/13 01:24:27;;;;;;;;;;;;;;;12.15;100.00;95313.72;10508731;28;2053;-72
2023/06/13 01:29:30;;;;;;;;;;;;;;;12.10;100.00;95308.44;10504980;28;2154;-71
2023/06/13 01:34:32;;;;;;;;;;;;;;;12.10;100.00;95303.06;10513654;28;2223;-72
2023/06/13 01:39:35;;;;;;;;;;;;;;;12.13;100.00;95297.06;10505443;28;1984;-71
2023/06/13 01:44:37;;;;;;;;;;;;;;;12.06;100.00;95299.34;10503534;28;4580;-71
2023/06/13 01:49:40;;;;;;;;;;;;;;;12.00;100.00;95295.13;10498720;28;2504;-71
2023/06/13 01:54:42;;;;;;;;;;;;;;;11.89;100.00;95292.59;10502567;28;2089;-71
2023/06/13 01:59:44;;;;;;;;;;;;;;;11.86;100.00;95290.50;10500235;28;1962;-71
2023/06/13 02:04:47;;;;;;;;;;;;;;;11.71;100.00;95288.03;10498582;28;1966;-71
2023/06/13 02:09:49;;;;;;;;;;;;;;;11.57;100.00;95273.66;10505864;28;2001;-71
2023/06/13 02:14:53;;;;;;;;;;;;;;;11.46;100.00;95273.03;10501289;28;1969;-71
2023/06/13 02:19:56;;;;;;;;;;;;;;;11.44;100.00;95267.13;10501613;28;1922;-70
2023/06/13 02:24:59;;;;;;;;;;;;;;;11.31;100.00;95263.25;10504604;28;1899;-72
2023/06/13 02:30:02;;;;;;;;;;;;;;;11.29;100.00;95270.84;10502444;28;1949;-72
2023/06/13 02:35:04;;;;;;;;;;;;;;;11.23;100.00;95261.22;10498580;28;1824;-70
2023/06/13 02:40:07;;;;;;;;;;;;;;;11.17;100.00;95267.78;10498677;28;4560;-71
2023/06/13 02:45:10;;;;;;;;;;;;;;;11.12;100.00;95267.84;10460300;28;1088401;-71
2023/06/13 02:50:12;;;;;;;;;;;;;;;11.04;100.00;95255.84;10509605;28;1954;-70
2023/06/13 02:55:15;;;;;;;;;;;;;;;10.95;100.00;95265.63;10502179;28;1960;-71
2023/06/13 03:00:17;;;;;;;;;;;;;;;10.92;100.00;95260.81;10503781;28;1934;-70
2023/06/13 03:05:20;;;;;;;;;;;;;;;10.93;100.00;95261.63;10508038;28;2024;-70
2023/06/13 03:10:23;;;;;;;;;;;;;;;10.91;100.00;95263.81;10507202;28;1886;-71
2023/06/13 03:15:27;;;;;;;;;;;;;;;10.96;100.00;95263.75;10502699;28;1907;-71
2023/06/13 03:20:30;;;;;;;;;;;;;;;10.95;100.00;95262.16;10498160;28;2002;-71
2023/06/13 03:25:33;;;;;;;;;;;;;;;10.92;100.00;95268.09;10496783;28;2364;-70
2023/06/13 03:30:36;;;;;;;;;;;;;;;10.92;100.00;95262.72;10500648;28;2099;-70
2023/06/13 03:35:40;;;;;;;;;;;;;;;11.00;100.00;95267.44;10506150;28;2111;-71
2023/06/13 03:40:43;;;;;;;;;;;;;;;11.08;100.00;95269.50;10495695;28;4616;-71
2023/06/13 03:45:45;;;;;;;;;;;;;;;11.16;100.00;95266.19;10501005;28;1965;-71
2023/06/13 03:50:47;;;;;;;;;;;;;;;11.21;100.00;95271.50;10504256;28;2050;-72
2023/06/13 03:55:50;;;;;;;;;;;;;;;11.24;100.00;95273.59;10497492;28;1922;-70
2023/06/13 04:00:54;;;;;;;;;;;;;;;11.43;100.00;95265.53;10485823;28;2198;-71
2023/06/13 04:05:56;;;;;;;;;;;;;;;11.50;100.00;95270.53;10503138;28;1903;-71
2023/06/13 04:10:59;;;;;;;;;;;;;;;11.69;100.00;95274.03;10502032;28;1955;-70
2023/06/13 04:16:02;;;;;;;;;;;;;;;11.73;100.00;95279.66;10501383;28;1911;-71
2023/06/13 04:21:04;;;;;;;;;;;;;;;11.92;100.00;95279.66;10500375;28;2431;-72
2023/06/13 04:26:07;;;;;;;;;;;;;;;12.17;100.00;95271.16;10499417;28;2158;-70
2023/06/13 04:31:10;;;;;;;;;;;;;;;12.07;100.00;95280.19;10503800;28;1894;-71
2023/06/13 04:36:13;;;;;;;;;;;;;;;12.41;100.00;95285.28;10493041;28;1894;-72
2023/06/13 04:41:16;;;;;;;;;;;;;;;12.62;100.00;95295.69;10501205;28;4604;-71
2023/06/13 04:46:19;;;;;;;;;;;;;;;13.14;100.00;95290.91;10501376;28;1939;-71
2023/06/13 04:51:21;;;;;;;;;;;;;;;12.99;100.00;95290.13;10488887;28;1985;-72
2023/06/13 04:56:24;;;;;;;;;;;;;;;12.97;100.00;95292.31;10499322;28;1911;-71
2023/06/13 05:01:27;;;;;;;;;;;;;;;13.20;100.00;95290.53;10498078;28;1892;-71
2023/06/13 05:06:30;;;;;;;;;;;;;;;13.22;100.00;95284.81;10494382;28;1924;-71
2023/06/13 05:11:33;;;;;;;;;;;;;;;13.50;100.00;95289.09;10493170;28;1934;-71
2023/06/13 05:16:35;;;;;;;;;;;;;;;13.74;100.00;95293.41;10496324;28;2342;-71
2023/06/13 05:21:38;;;;;;;;;;;;;;;13.59;100.00;95291.88;10496968;28;1901;-73
2023/06/13 05:26:40;;;;;;;;;;;;;;;13.66;100.00;95297.66;10497904;28;1937;-70
2023/06/13 05:31:43;;;;;;;;;;;;;;;13.79;100.00;95291.41;10492483;28;1895;-71
2023/06/13 05:36:46;;;;;;;;;;;;;;;13.92;100.00;95288.97;10502878;28;2007;-70
2023/06/13 05:41:48;;;;;;;;;;;;;;;14.03;100.00;95287.63;10513996;28;4697;-69
2023/06/13 05:46:51;;;;;;;;;;;;;;;14.59;100.00;95292.47;10517311;28;1477;-70
2023/06/13 05:51:53;;;;;;;;;;;;;;;14.76;100.00;95285.53;10508243;28;2009;-70
2023/06/13 05:56:56;;;;;;;;;;;;;;;14.51;100.00;95285.09;10512932;28;1903;-70
2023/06/13 06:01:58;;;;;;;;;;;;;;;14.73;100.00;95280.75;10505246;28;1934;-70
2023/06/13 06:07:00;;;;;;;;;;;;;;;15.07;100.00;95291.69;10501994;28;1895;-70
2023/06/13 06:12:03;;;;;;;;;;;;;;;15.21;100.00;95285.38;10508332;28;1899;-70
2023/06/13 06:17:05;;;;;;;;;;;;;;;14.78;100.00;95294.13;10501341;28;2287;-70
2023/06/13 06:22:07;;;;;;;;;;;;;;;14.90;100.00;95302.47;10488780;28;2151;-70
2023/06/13 06:27:11;;;;;;;;;;;;;;;15.12;100.00;95288.84;10515588;28;1887;-70
2023/06/13 06:32:13;;;;;;;;;;;;;;;15.23;100.00;95293.97;10501010;28;1927;-69
2023/06/13 06:37:16;;;;;;;;;;;;;;;15.39;99.22;95285.09;10496185;28;1954;-71
2023/06/13 06:42:18;;;;;;;;;;;;;;;15.64;99.53;95290.91;10505888;28;4494;-70
2023/06/13 06:47:21;;;;;;;;;;;;;;;15.59;97.49;95294.53;10511001;28;1945;-71
2023/06/13 06:52:23;;;;;;;;;;;;;;;15.94;94.79;95281.03;10503326;28;1957;-71
2023/06/13 06:57:26;;;;;;;;;;;;;;;15.64;96.58;95291.69;10503333;28;1871;-71
2023/06/13 07:02:28;;;;;;;;;;;;;;;16.01;93.48;95281.34;10507488;28;1933;-71
2023/06/13 07:07:32;;;;;;;;;;;;;;;16.66;86.94;95280.28;10503772;28;2155;-71
2023/06/13 07:12:36;;;;;;;;;;;;;;;16.96;81.47;95280.38;10503862;28;2400;-70
2023/06/13 07:17:38;;;;;;;;;;;;;;;16.66;79.20;95282.19;10505016;28;1895;-69
2023/06/13 07:22:41;;;;;;;;;;;;;;;16.80;80.44;95273.91;10500481;28;2092;-71
2023/06/13 07:27:43;;;;;;;;;;;;;;;17.07;76.15;95278.88;10502517;28;1958;-71
2023/06/13 07:32:46;;;;;;;;;;;;;;;17.11;72.87;95279.00;10495194;28;1910;-69
2023/06/13 07:37:49;;;;;;;;;;;;;;;17.43;73.10;95277.56;10506812;28;2095;-71
2023/06/13 07:42:52;;;;;;;;;;;;;;;17.46;69.28;95271.50;10506333;28;1903;-69
2023/06/13 07:47:54;;;;;;;;;;;;;;;17.70;66.58;95262.69;10508860;28;1930;-70
2023/06/13 07:52:56;;;;;;;;;;;;;;;17.62;66.06;95274.41;10498785;28;1910;-70
2023/06/13 07:57:59;;;;;;;;;;;;;;;17.36;67.41;95263.72;10499282;28;1910;-70
2023/06/13 08:03:03;;;;;;;;;;;;;;;17.65;64.65;95271.84;10482745;28;1879;-70
2023/06/13 08:08:05;;;;;;;;;;;;;;;17.93;62.54;95265.91;10492051;28;1983;-71
2023/06/13 08:13:08;;;;;;;;;;;;;;;18.14;61.00;95269.41;10500182;28;1902;-71
2023/06/13 08:18:10;;;;;;;;;;;;;;;17.95;63.43;95258.22;10501437;28;1978;-70
2023/06/13 08:23:14;;;;;;;;;;;;;;;17.91;59.90;95265.44;10496247;28;2011;-70
2023/06/13 08:28:17;;;;;;;;;;;;;;;17.62;61.03;95274.41;10498023;28;1957;-72
2023/06/13 08:33:21;;;;;;;;;;;;;;;17.60;60.62;95263.88;10496226;28;1894;-70
2023/06/13 08:38:24;;;;;;;;;;;;;;;18.01;58.94;95281.38;10503493;28;2032;-70
2023/06/13 08:43:46;;;;;;;;;;;;;;;17.83;55.63;95275.25;10483906;28;4545;-71
2023/06/13 08:48:49;;;;;;;;;;;;;;;17.99;53.58;95280.88;10506670;28;1953;-71
2023/06/13 08:53:53;;;;;;;;;;;;;;;18.03;53.35;95271.72;10505309;28;1959;-71
2023/06/13 08:58:56;;;;;;;;;;;;;;;18.70;51.57;95279.91;10503411;28;1888;-71
2023/06/13 09:03:58;;;;;;;;;;;;;;;18.37;48.99;95275.25;10497249;28;2444;-70
2023/06/13 09:09:00;;;;;;;;;;;;;;;18.26;49.59;95274.91;10495314;28;1875;-71
2023/06/13 09:14:03;;;;;;;;;;;;;;;18.16;48.85;95280.75;10509388;28;1903;-71
2023/06/13 09:19:05;;;;;;;;;;;;;;;18.23;49.08;95275.56;10504961;28;1894;-71
2023/06/13 09:24:08;;;;;;;;;;;;;;;18.03;46.14;95289.97;10499075;28;1919;-70
2023/06/13 09:29:10;;;;;;;;;;;;;;;18.15;46.05;95271.00;10505599;28;1981;-70
2023/06/13 09:34:33;;;;;;;;;;;;;;;18.78;45.91;95246.38;10513283;28;1932;-71
2023/06/13 09:39:36;;;;;;;;;;;;;;;18.75;42.39;95247.03;10500557;28;1994;-70
2023/06/13 09:44:38;;;;;;;;;;;;;;;18.65;42.68;95264.59;10507400;28;4944;-71
2023/06/13 09:50:00;;;;;;;;;;;;;;;19.20;39.97;95246.94;10501783;28;1950;-72
2023/06/13 09:55:02;;;;;;;;;;;;;;;19.29;39.95;95239.47;10504885;28;1981;-71
2023/06/13 10:00:08;;;;;;;;;;;;;;;19.20;39.69;95241.50;10505741;28;2425;-71
2023/06/13 10:05:11;;;;;;;;;;;;;;;19.47;39.21;95236.47;10502482;28;1967;-71
2023/06/13 10:10:13;;;;;;;;;;;;;;;19.23;37.26;95238.09;10505257;28;1965;-71
2023/06/13 10:15:16;;;;;;;;;;;;;;;19.00;39.18;95237.75;10502854;28;1860;-71
2023/06/13 10:20:19;;;;;;;;;;;;;;;19.46;38.62;95232.94;10516432;28;1867;-71
2023/06/13 10:25:22;;;;;;;;;;;;;;;19.51;37.44;95235.44;10501314;28;1876;-70
2023/06/13 10:30:26;;;;;;;;;;;;;;;19.28;36.81;95226.97;10501215;28;2039;-71
2023/06/13 10:35:30;;;;;;;;;;;;;;;20.03;36.87;95222.94;10503819;28;1879;-71
2023/06/13 10:40:32;;;;;;;;;;;;;;;20.51;33.88;95214.56;10502184;28;2060;-72
2023/06/13 10:45:35;;;;;;;;;;;;;;;21.04;34.47;95223.28;10506359;28;1855;-72
2023/06/13 10:50:37;;;;;;;;;;;;;;;21.65;30.56;95216.53;10501316;28;2001;-72
2023/06/13 10:55:40;;;;;;;;;;;;;;;21.24;31.55;95209.69;10500121;28;2239;-72
2023/06/13 11:00:43;;;;;;;;;;;;;;;21.20;31.76;95209.63;10502747;28;1919;-72
2023/06/13 11:05:46;;;;;;;;;;;;;;;21.28;31.69;95199.66;10497242;28;1890;-72
2023/06/13 11:10:51;;;;;;;;;;;;;;;21.44;31.49;95200.44;10498752;28;2068;-72
2023/06/13 11:15:53;;;;;;;;;;;;;;;20.91;31.86;95204.63;10498594;28;1924;-72
2023/06/13 11:20:57;;;;;;;;;;;;;;;20.90;30.66;95190.16;10500887;28;2100;-69
2023/06/13 11:25:59;;;;;;;;;;;;;;;21.58;31.39;95192.53;10500677;28;1922;-74
2023/06/13 11:31:02;;;;;;;;;;;;;;;21.01;31.35;95183.03;10498247;28;2119;-73
2023/06/13 11:36:04;;;;;;;;;;;;;;;20.57;33.12;95187.00;10495159;28;2028;-72
2023/06/13 11:41:07;;;;;;;;;;;;;;;20.47;30.63;95175.44;10500998;28;1946;-71
2023/06/13 11:46:10;;;;;;;;;;;;;;;20.47;30.06;95180.91;10506642;28;1899;-72
2023/06/13 11:51:12;;;;;;;;;;;;;;;20.32;31.04;95173.47;10503531;28;2479;-72
2023/06/13 11:56:15;;;;;;;;;;;;;;;20.35;32.53;95169.25;10517729;28;1484;-71
2023/06/13 12:01:20;;;;;;;;;;;;;;;20.66;31.86;95168.50;10510092;28;1825;-72
2023/06/13 12:06:23;;;;;;;;;;;;;;;21.00;32.14;95162.31;10501188;28;1987;-72
2023/06/13 12:11:29;;;;;;;;;;;;;;;21.09;33.42;95153.13;10501474;28;1955;-71
2023/06/13 12:16:31;;;;;;;;;;;;;;;20.98;30.38;95161.06;10502771;28;1930;-72
2023/06/13 12:21:34;;;;;;;;;;;;;;;21.28;31.64;95156.72;10510214;28;1960;-71
2023/06/13 12:26:40;;;;;;;;;;;;;;;21.20;31.14;95160.44;10496058;28;1974;-71
2023/06/13 12:31:44;;;;;;;;;;;;;;;21.33;31.88;95152.16;10500272;28;1939;-71
2023/06/13 12:36:48;;;;;;;;;;;;;;;21.42;30.96;95142.56;10503418;28;2186;-73
2023/06/13 12:41:50;;;;;;;;;;;;;;;21.52;32.13;95147.50;10502264;28;4474;-71
2023/06/13 12:46:53;;;;;;;;;;;;;;;21.59;32.12;95138.66;10504220;28;2239;-72
2023/06/13 12:51:55;;;;;;;;;;;;;;;21.50;31.56;95138.88;10508570;28;1898;-72
2023/06/13 12:56:57;;;;;;;;;;;;;;;22.16;31.93;95117.88;10515347;28;2027;-72
2023/06/13 13:02:00;;;;;;;;;;;;;;;22.03;31.04;95124.66;10511510;28;1871;-72
2023/06/13 13:07:03;;;;;;;;;;;;;;;21.83;30.70;95127.41;10511175;28;1860;-72
2023/06/13 13:12:06;;;;;;;;;;;;;;;21.68;29.06;95111.06;10506017;28;1957;-72
2023/06/13 13:17:08;;;;;;;;;;;;;;;21.76;27.58;95107.34;10503499;28;1947;-72
2023/06/13 13:22:11;;;;;;;;;;;;;;;22.44;25.76;95101.16;10514681;28;2028;-72
2023/06/13 13:27:13;;;;;;;;;;;;;;;21.88;25.05;95106.38;10500136;28;1931;-72
2023/06/13 13:32:15;;;;;;;;;;;;;;;21.98;25.98;95098.38;10515622;28;1917;-72
2023/06/13 13:37:18;;;;;;;;;;;;;;;21.93;25.19;95100.59;10505685;28;1970;-72
2023/06/13 13:42:23;;;;;;;;;;;;;;;22.38;25.69;95097.94;10505510;28;4546;-71
2023/06/13 13:47:28;;;;;;;;;;;;;;;22.07;28.15;95092.66;10507183;28;2291;-71
2023/06/13 13:52:30;;;;;;;;;;;;;;;22.19;27.89;95086.25;10502044;28;2273;-72
2023/06/13 13:57:33;;;;;;;;;;;;;;;22.52;26.66;95086.44;10498879;28;1876;-71
2023/06/13 14:02:35;;;;;;;;;;;;;;;22.22;27.28;95085.53;10503678;28;2012;-72
2023/06/13 14:07:38;;;;;;;;;;;;;;;22.83;27.78;95073.59;10508418;28;2193;-72
2023/06/13 14:12:40;;;;;;;;;;;;;;;22.80;28.23;95071.59;10506065;28;1906;-71
2023/06/13 14:17:43;;;;;;;;;;;;;;;23.27;28.00;95086.78;10490486;28;1923;-71
2023/06/13 14:22:45;;;;;;;;;;;;;;;23.02;26.27;95064.50;10496554;28;1929;-71
2023/06/13 14:27:47;;;;;;;;;;;;;;;22.88;27.47;95065.09;10489277;28;1876;-71
2023/06/13 14:32:50;;;;;;;;;;;;;;;22.72;28.30;95061.72;10498571;28;1975;-71
2023/06/13 14:37:52;;;;;;;;;;;;;;;22.77;27.55;95053.94;10505613;28;2108;-71
2023/06/13 14:42:55;;;;;;;;;;;;;;;22.88;27.51;95065.09;10506544;28;4607;-71
2023/06/13 14:47:57;;;;;;;;;;;;;;;23.13;27.45;95068.19;10514086;28;1926;-71
2023/06/13 14:53:00;;;;;;;;;;;;;;;22.53;25.47;95054.38;10505767;28;1928;-70
2023/06/13 14:58:03;;;;;;;;;;;;;;;22.79;24.80;95056.34;10501446;28;1934;-71
2023/06/13 15:03:05;;;;;;;;;;;;;;;22.76;25.03;95057.06;10496295;28;2028;-70
2023/06/13 15:08:07;;;;;;;;;;;;;;;22.69;24.86;95048.72;10495351;28;1841;-70
2023/06/13 15:13:10;;;;;;;;;;;;;;;22.85;23.40;95043.91;10494304;28;1949;-71
2023/06/13 15:18:12;;;;;;;;;;;;;;;23.09;21.98;95035.22;10498518;28;1883;-72
2023/06/13 15:23:15;;;;;;;;;;;;;;;23.32;24.80;95032.41;10513460;28;1899;-71
2023/06/13 15:28:17;;;;;;;;;;;;;;;23.46;23.95;95034.53;10496269;28;1902;-72
2023/06/13 15:33:20;;;;;;;;;;;;;;;23.29;24.13;95024.16;10495743;28;1935;-70
2023/06/13 15:38:22;;;;;;;;;;;;;;;23.04;24.93;95037.53;10497439;28;2428;-72
2023/06/13 15:43:25;;;;;;;;;;;;;;;22.63;24.46;95031.81;10495847;28;2091;-71
2023/06/13 15:48:27;;;;;;;;;;;;;;;22.86;25.06;95029.84;10498752;28;1898;-70
2023/06/13 15:53:30;;;;;;;;;;;;;;;22.74;24.72;95040.19;10494488;28;1882;-72
2023/06/13 15:58:32;;;;;;;;;;;;;;;23.08;24.60;95027.38;10496269;28;1939;-72
2023/06/13 16:03:34;;;;;;;;;;;;;;;22.77;25.62;95034.75;10485198;28;1838;-72
2023/06/13 16:08:37;;;;;;;;;;;;;;;22.48;25.63;95039.03;10502522;28;1774;-70
2023/06/13 16:13:40;;;;;;;;;;;;;;;22.24;25.43;95037.47;10495343;28;1965;-72
2023/06/13 16:18:42;;;;;;;;;;;;;;;22.22;25.25;95033.53;10495680;28;1916;-73
2023/06/13 16:23:45;;;;;;;;;;;;;;;22.13;25.42;95031.81;10491098;28;1910;-73
2023/06/13 16:28:48;;;;;;;;;;;;;;;21.86;25.76;95041.06;10494084;28;2060;-73
2023/06/13 16:33:51;;;;;;;;;;;;;;;21.89;26.54;95040.38;10484875;28;2239;-71
2023/06/13 16:38:53;;;;;;;;;;;;;;;21.66;26.39;95036.78;10499410;28;1937;-72
2023/06/13 16:43:58;;;;;;;;;;;;;;;21.38;27.58;95046.03;10501239;28;4548;-71
2023/06/13 16:49:00;;;;;;;;;;;;;;;21.30;27.60;95038.81;10504955;28;1887;-72
2023/06/13 16:54:03;;;;;;;;;;;;;;;21.14;27.46;95044.34;10492954;28;1959;-72
2023/06/13 16:59:05;;;;;;;;;;;;;;;21.24;28.11;95035.56;10494900;28;1919;-72
2023/06/13 17:04:08;;;;;;;;;;;;;;;21.30;27.08;95038.81;10495371;28;2166;-72
2023/06/13 17:09:10;;;;;;;;;;;;;;;21.01;27.02;95053.81;10506364;28;1895;-71
2023/06/13 17:14:13;;;;;;;;;;;;;;;20.99;27.65;95056.91;10500358;28;1959;-72
2023/06/13 17:19:16;;;;;;;;;;;;;;;20.82;27.19;95049.13;10492764;28;1958;-71
2023/06/13 17:24:19;;;;;;;;;;;;;;;20.78;27.15;95045.50;10489354;28;1887;-71
2023/06/13 17:29:21;;;;;;;;;;;;;;;20.76;25.90;95051.31;10501249;28;1899;-69
2023/06/13 17:34:24;;;;;;;;;;;;;;;20.70;26.31;95054.69;10504013;28;1917;-72
2023/06/13 17:39:27;;;;;;;;;;;;;;;20.51;26.51;95052.69;10503524;28;1947;-71
2023/06/13 17:44:29;;;;;;;;;;;;;;;20.52;27.46;95055.06;10505185;28;4611;-72
2023/06/13 17:49:32;;;;;;;;;;;;;;;20.44;28.24;95058.75;10509075;28;2000;-71
2023/06/13 17:54:35;;;;;;;;;;;;;;;20.42;27.27;95049.31;10503786;28;1997;-71
2023/06/13 17:59:38;;;;;;;;;;;;;;;20.29;26.57;95054.06;10514444;28;1994;-72
2023/06/13 18:04:40;;;;;;;;;;;;;;;20.20;27.41;95053.47;10501981;28;2096;-70
2023/06/13 18:09:42;;;;;;;;;;;;;;;20.12;27.11;95065.34;10511937;28;2034;-69
2023/06/13 18:14:45;;;;;;;;;;;;;;;19.95;28.12;95063.75;10516046;28;2079;-72
2023/06/13 18:19:47;;;;;;;;;;;;;;;19.84;28.91;95068.13;10507543;28;1892;-70
2023/06/13 18:24:50;;;;;;;;;;;;;;;19.70;29.57;95065.81;10504982;28;2440;-72
2023/06/13 18:29:52;;;;;;;;;;;;;;;19.66;29.69;95073.91;10498723;28;1934;-72
2023/06/13 18:34:55;;;;;;;;;;;;;;;19.40;30.91;95073.53;10503915;28;1936;-72
2023/06/13 18:39:57;;;;;;;;;;;;;;;19.27;31.24;95067.31;10507401;28;4486;-72
2023/06/13 18:44:59;;;;;;;;;;;;;;;19.14;31.86;95079.41;10499655;28;2052;-72
2023/06/13 18:50:05;;;;;;;;;;;;;;;19.01;32.58;95094.97;10493871;28;1973;-71
2023/06/13 18:55:08;;;;;;;;;;;;;;;18.79;33.19;95098.22;10503403;28;1961;-72
2023/06/13 19:00:12;;;;;;;;;;;;;;;18.70;32.81;95098.31;10508240;28;1927;-70
2023/06/13 19:05:15;;;;;;;;;;;;;;;18.47;33.59;95099.88;10512356;28;1943;-70
2023/06/13 19:10:18;;;;;;;;;;;;;;;18.42;33.68;95108.28;10504056;28;1935;-69
2023/06/13 19:15:21;;;;;;;;;;;;;;;18.30;34.16;95111.78;10513677;28;1918;-71
2023/06/13 19:20:25;;;;;;;;;;;;;;;18.05;34.87;95106.28;10505110;28;2404;-70
2023/06/13 19:25:28;;;;;;;;;;;;;;;17.96;35.34;95113.75;10507785;28;1888;-70
2023/06/13 19:30:31;;;;;;;;;;;;;;;17.81;35.72;95112.47;10503459;28;2157;-72
2023/06/13 19:35:34;;;;;;;;;;;;;;;17.66;36.36;95128.59;10511018;28;1895;-71
2023/06/13 19:40:37;;;;;;;;;;;;;;;17.48;37.38;95131.44;10485922;28;4532;-71
2023/06/13 19:45:39;;;;;;;;;;;;;;;17.34;38.34;95135.56;10500883;28;1915;-70
2023/06/13 19:50:44;;;;;;;;;;;;;;;17.26;40.05;95134.53;10491343;28;1940;-73
2023/06/13 19:55:47;;;;;;;;;;;;;;;17.21;41.47;95143.66;10497314;28;1902;-71
2023/06/13 20:00:50;;;;;;;;;;;;;;;17.27;42.82;95146.97;10497781;28;1943;-70
2023/06/13 20:05:53;;;;;;;;;;;;;;;17.23;42.17;95146.03;10496686;28;1942;-72
2023/06/13 20:10:55;;;;;;;;;;;;;;;17.09;43.01;95140.06;10507828;28;2186;-71
2023/06/13 20:15:57;;;;;;;;;;;;;;;17.09;43.48;95145.50;10504320;28;1880;-73
2023/06/13 20:21:00;;;;;;;;;;;;;;;16.96;43.29;95152.75;10503690;28;2261;-72
2023/06/13 20:26:03;;;;;;;;;;;;;;;16.86;45.20;95150.41;10507809;28;1902;-73
2023/06/13 20:31:06;;;;;;;;;;;;;;;16.75;45.14;95153.53;10505495;28;2009;-74
2023/06/13 20:36:08;;;;;;;;;;;;;;;16.75;47.19;95150.81;10503792;28;2097;-73
2023/06/13 20:41:11;;;;;;;;;;;;;;;16.56;47.40;95146.91;10489342;28;4565;-73
2023/06/13 20:46:13;;;;;;;;;;;;;;;16.59;46.74;95144.31;10498222;28;1888;-73
2023/06/13 20:51:16;;;;;;;;;;;;;;;16.77;48.57;95144.25;10503401;28;1903;-73
2023/06/13 20:56:19;;;;;;;;;;;;;;;16.60;48.97;95148.59;10499110;28;2218;-74
2023/06/13 21:01:22;;;;;;;;;;;;;;;16.44;49.27;95153.81;10503944;28;1936;-73
2023/06/13 21:06:26;;;;;;;;;;;;;;;16.28;52.08;95154.66;10502966;28;1938;-73
2023/06/13 21:11:28;;;;;;;;;;;;;;;16.03;52.62;95154.44;10509210;28;1971;-73
2023/06/13 21:16:31;;;;;;;;;;;;;;;16.00;54.48;95154.28;10495988;28;2287;-72
2023/06/13 21:21:34;;;;;;;;;;;;;;;15.95;57.98;95157.94;10512200;28;1911;-73
2023/06/13 21:26:36;;;;;;;;;;;;;;;15.67;65.78;95163.72;10514269;28;1939;-73
2023/06/13 21:31:38;;;;;;;;;;;;;;;15.60;65.28;95168.00;10514227;28;1981;-73
2023/06/13 21:36:42;;;;;;;;;;;;;;;15.50;70.62;95168.31;10509797;28;1847;-71
2023/06/13 21:41:45;;;;;;;;;;;;;;;15.51;71.17;95178.84;10514100;28;4454;-71
2023/06/13 21:46:47;;;;;;;;;;;;;;;15.55;71.86;95171.69;10511586;28;1828;-71
2023/06/13 21:51:50;;;;;;;;;;;;;;;15.62;72.68;95176.63;10508661;28;1953;-72
2023/06/13 21:56:52;;;;;;;;;;;;;;;15.57;75.17;95174.84;10502449;28;1906;-72
2023/06/13 22:01:55;;;;;;;;;;;;;;;15.42;76.08;95183.47;10522846;28;1864;-72
2023/06/13 22:06:58;;;;;;;;;;;;;;;15.24;79.82;95176.44;10513244;28;2015;-73
2023/06/13 22:12:02;;;;;;;;;;;;;;;15.10;85.04;95182.81;10507249;28;1903;-72
2023/06/13 22:17:05;;;;;;;;;;;;;;;15.05;85.68;95179.44;10512369;28;2031;-72
2023/06/13 22:22:08;;;;;;;;;;;;;;;15.16;82.27;95183.44;10509351;28;1914;-73
2023/06/13 22:27:11;;;;;;;;;;;;;;;14.96;88.08;95171.31;10508388;28;1903;-72
2023/06/13 22:32:14;;;;;;;;;;;;;;;14.83;87.53;95172.25;10520582;28;1955;-71
2023/06/13 22:37:17;;;;;;;;;;;;;;;14.81;91.98;95175.25;10514635;28;1895;-72
2023/06/13 22:42:20;;;;;;;;;;;;;;;14.73;91.80;95180.66;10503897;28;2126;-73
2023/06/13 22:47:22;;;;;;;;;;;;;;;14.69;89.10;95183.16;10507420;28;2159;-72
2023/06/13 22:52:25;;;;;;;;;;;;;;;14.59;93.33;95178.06;10513018;28;2244;-72
2023/06/13 22:57:30;;;;;;;;;;;;;;;14.63;92.56;95180.91;10507867;28;1836;-73
2023/06/13 23:02:32;;;;;;;;;;;;;;;14.48;96.36;95172.13;10507640;28;2000;-74
2023/06/13 23:07:35;;;;;;;;;;;;;;;14.41;93.93;95176.38;10508210;28;2718;-72
2023/06/13 23:12:38;;;;;;;;;;;;;;;14.42;96.16;95167.94;10506482;28;2099;-73
2023/06/13 23:17:41;;;;;;;;;;;;;;;14.49;90.78;95165.59;10510184;28;2024;-73
2023/06/13 23:22:43;;;;;;;;;;;;;;;14.43;91.23;95168.72;10508188;28;1967;-73
2023/06/13 23:27:47;;;;;;;;;;;;;;;14.27;95.03;95168.34;10509562;28;1891;-73
2023/06/13 23:32:49;;;;;;;;;;;;;;;14.19;95.97;95161.03;10503405;28;1967;-72
2023/06/13 23:37:52;;;;;;;;;;;;;;;14.17;93.95;95171.31;10491139;28;1952;-72
2023/06/13 23:42:54;;;;;;;;;;;;;;;14.06;97.21;95160.78;10502294;28;4635;-71
2023/06/13 23:47:57;;;;;;;;;;;;;;;14.17;93.08;95160.50;10503472;28;1974;-72
2023/06/13 23:53:00;;;;;;;;;;;;;;;14.13;95.03;95160.34;10503367;28;1964;-72
2023/06/13 23:58:02;;;;;;;;;;;;;;;13.98;99.04;95153.41;10503037;28;2174;-73
